createdAt,value
2023-04-14T00:00:51.142Z,1.40
2023-04-14T00:03:18.002Z,1.40
2023-04-14T00:05:44.508Z,1.23
2023-04-14T00:08:10.834Z,1.15
2023-04-14T00:10:37.074Z,1.30
2023-04-14T00:13:03.334Z,1.15
2023-04-14T00:15:29.646Z,1.02
2023-04-14T00:17:56.117Z,1.50
2023-04-14T00:20:22.380Z,1.30
2023-04-14T00:22:48.731Z,1.42
2023-04-14T00:25:15.041Z,1.20
2023-04-14T00:27:41.360Z,1.40
2023-04-14T00:30:07.896Z,1.92
2023-04-14T00:32:34.277Z,1.38
2023-04-14T00:35:03.208Z,1.35
2023-04-14T00:37:30.508Z,1.55
2023-04-14T00:39:57.209Z,1.52
2023-04-14T00:42:23.694Z,1.48
2023-04-14T00:44:49.986Z,1.30
2023-04-14T00:47:16.321Z,1.17
2023-04-14T00:49:42.648Z,1.13
2023-04-14T00:52:09.316Z,1.25
2023-04-14T00:54:37.689Z,1.35
2023-04-14T00:57:04.758Z,1.80
2023-04-14T00:59:31.298Z,1.40
2023-04-14T01:01:58.209Z,1.27
2023-04-14T01:04:29.267Z,1.40
2023-04-14T01:07:03.307Z,1.25
2023-04-14T01:09:29.770Z,1.52
2023-04-14T01:12:22.159Z,1.42
2023-04-14T01:14:52.027Z,1.00
2023-04-14T01:17:21.069Z,1.30
2023-04-14T01:19:47.342Z,1.00
2023-04-14T01:22:14.863Z,1.08
2023-04-14T01:24:41.139Z,1.27
2023-04-14T01:27:30.469Z,1.25
2023-04-14T01:29:59.749Z,1.60
2023-04-14T01:32:27.199Z,1.50
2023-04-14T01:35:03.801Z,1.85
2023-04-14T01:40:07.941Z,1.30
2023-04-14T01:42:36.748Z,1.40
2023-04-14T01:45:23.575Z,1.60
2023-04-14T01:47:50.306Z,1.40
2023-04-14T01:50:17.042Z,1.55
2023-04-14T01:52:44.456Z,1.50
2023-04-14T01:55:11.633Z,1.27
2023-04-14T01:57:38.412Z,1.42
2023-04-14T02:00:05.942Z,1.02
2023-04-14T02:02:33.351Z,1.30
2023-04-14T02:05:00.415Z,1.20
2023-04-14T02:07:27.501Z,1.30
2023-04-14T02:09:54.884Z,1.08
2023-04-14T02:12:23.489Z,1.30
2023-04-14T02:14:51.029Z,1.25
2023-04-14T02:17:19.273Z,1.08
2023-04-14T02:19:47.332Z,1.60
2023-04-14T02:22:13.771Z,1.50
2023-04-14T02:24:40.167Z,1.17
2023-04-14T02:27:32.878Z,1.50
2023-04-14T02:29:59.859Z,1.20
2023-04-14T02:32:29.079Z,1.55
2023-04-14T02:35:12.093Z,1.02
2023-04-14T02:37:40.688Z,1.25
2023-04-14T02:40:12.849Z,1.35
2023-04-14T02:42:41.263Z,1.10
2023-04-14T02:45:12.008Z,1.25
2023-04-14T02:47:41.018Z,1.33
2023-04-14T02:50:10.915Z,1.50
2023-04-14T02:52:38.978Z,1.23
2023-04-14T02:55:06.203Z,1.50
2023-04-14T02:57:33.222Z,1.40
2023-04-14T03:00:00.337Z,1.20
2023-04-14T03:02:27.574Z,1.30
2023-04-14T03:04:54.034Z,1.50
2023-04-14T03:07:21.741Z,1.67
2023-04-14T03:09:50.352Z,1.25
2023-04-14T03:12:17.587Z,1.50
2023-04-14T03:14:44.331Z,1.60
2023-04-14T03:17:14.685Z,1.23
2023-04-14T03:19:42.290Z,1.20
2023-04-14T03:22:10.489Z,1.30
2023-04-14T03:24:37.551Z,1.58
2023-04-14T03:27:08.803Z,1.40
2023-04-14T03:29:37.867Z,1.38
2023-04-14T03:32:06.804Z,1.38
2023-04-14T03:34:33.905Z,1.23
2023-04-14T03:37:04.331Z,1.40
2023-04-14T03:39:32.796Z,1.25
2023-04-14T03:41:59.764Z,1.90
2023-04-14T03:44:27.504Z,1.30
2023-04-14T03:46:54.619Z,1.65
2023-04-14T03:49:23.673Z,1.60
2023-04-14T03:51:53.491Z,1.10
2023-04-14T03:54:22.916Z,1.35
2023-04-14T03:56:49.586Z,1.30
2023-04-14T03:59:17.026Z,1.08
2023-04-14T04:01:44.324Z,1.10
2023-04-14T04:04:11.518Z,1.17
2023-04-14T04:06:40.195Z,1.50
2023-04-14T04:09:07.306Z,1.35
2023-04-14T04:11:34.409Z,1.73
2023-04-14T04:14:03.073Z,1.42
2023-04-14T04:16:31.085Z,1.23
2023-04-14T04:18:59.003Z,1.40
2023-04-14T04:21:27.423Z,1.30
2023-04-14T04:23:55.887Z,1.30
2023-04-14T04:26:25.181Z,1.25
2023-04-14T04:28:52.437Z,1.38
2023-04-14T04:31:19.059Z,1.25
2023-04-14T04:33:45.927Z,1.38
2023-04-14T04:36:13.011Z,1.15
2023-04-14T04:38:39.480Z,1.23
2023-04-14T04:41:06.068Z,1.67
2023-04-14T04:43:32.448Z,1.45
2023-04-14T04:45:58.759Z,1.35
2023-04-14T04:48:25.308Z,1.20
2023-04-14T04:50:51.658Z,1.75
2023-04-14T04:53:18.061Z,1.40
2023-04-14T04:55:44.378Z,1.52
2023-04-14T04:58:11.274Z,1.30
2023-04-14T05:00:37.607Z,1.40
2023-04-14T05:03:04.027Z,1.10
2023-04-14T05:05:30.617Z,1.50
2023-04-14T05:07:56.853Z,1.85
2023-04-14T05:10:23.714Z,1.60
2023-04-14T05:12:50.199Z,1.40
2023-04-14T05:15:16.668Z,1.40
2023-04-14T05:17:44.227Z,1.25
2023-04-14T05:20:10.833Z,1.40
2023-04-14T05:22:37.120Z,1.38
2023-04-14T05:25:04.012Z,1.20
2023-04-14T05:27:30.390Z,1.30
2023-04-14T05:29:56.752Z,1.15
2023-04-14T05:32:23.260Z,1.30
2023-04-14T05:34:49.692Z,1.45
2023-04-14T05:37:16.887Z,1.70
2023-04-14T05:39:43.196Z,1.83
2023-04-14T05:42:09.551Z,1.95
2023-04-14T05:44:35.996Z,1.40
2023-04-14T05:47:02.561Z,1.70
2023-04-14T05:49:28.986Z,1.35
2023-04-14T05:51:56.488Z,1.67
2023-04-14T05:54:22.891Z,1.80
2023-04-14T05:56:49.300Z,1.38
2023-04-14T05:59:17.098Z,1.95
2023-04-14T06:01:43.504Z,1.40
2023-04-14T06:04:10.859Z,2.00
2023-04-14T06:06:37.536Z,1.50
2023-04-14T06:09:03.929Z,1.70
2023-04-14T06:11:30.545Z,1.80
2023-04-14T06:13:56.815Z,1.70
2023-04-14T06:16:23.189Z,2.95
2023-04-14T06:18:49.650Z,1.98
2023-04-14T06:21:16.027Z,2.47
2023-04-14T06:23:42.306Z,1.92
2023-04-14T06:26:08.733Z,2.50
2023-04-14T06:28:35.028Z,2.33
2023-04-14T06:31:01.362Z,2.40
2023-04-14T06:33:27.637Z,2.17
2023-04-14T06:35:54.828Z,2.40
2023-04-14T06:38:21.235Z,2.20
2023-04-14T06:40:47.519Z,2.45
2023-04-14T06:43:14.925Z,1.98
2023-04-14T06:45:41.672Z,2.55
2023-04-14T06:48:08.224Z,2.65
2023-04-14T06:50:34.581Z,3.42
2023-04-14T06:53:00.861Z,3.05
2023-04-14T06:55:27.279Z,3.40
2023-04-14T06:57:53.608Z,3.30
2023-04-14T07:00:20.181Z,3.17
2023-04-14T07:02:46.556Z,2.95
2023-04-14T07:05:13.590Z,3.97
2023-04-14T07:07:40.449Z,3.42
2023-04-14T07:10:07.085Z,2.75
2023-04-14T07:12:33.567Z,2.75
2023-04-14T07:14:59.861Z,3.17
2023-04-14T07:17:27.410Z,2.92
2023-04-14T07:19:53.777Z,2.60
2023-04-14T07:22:20.095Z,3.33
2023-04-14T07:24:46.587Z,3.58
2023-04-14T07:27:15.237Z,3.00
2023-04-14T07:29:42.480Z,3.97
2023-04-14T07:32:08.800Z,3.60
2023-04-14T07:34:35.238Z,3.30
2023-04-14T07:37:01.569Z,2.58
2023-04-14T07:39:27.874Z,2.63
2023-04-14T07:41:54.121Z,2.22
2023-04-14T07:44:20.511Z,2.50
2023-04-14T07:46:46.836Z,2.85
2023-04-14T07:49:13.095Z,2.22
2023-04-14T07:51:39.436Z,2.47
2023-04-14T07:54:06.179Z,2.47
2023-04-14T07:56:32.671Z,2.00
2023-04-14T07:58:59.289Z,1.90
2023-04-14T08:01:25.827Z,2.05
2023-04-14T08:03:52.294Z,2.03
2023-04-14T08:06:19.101Z,2.15
2023-04-14T08:08:45.511Z,2.10
2023-04-14T08:11:11.850Z,1.90
2023-04-14T08:13:38.099Z,1.90
2023-04-14T08:16:04.611Z,1.80
2023-04-14T08:18:31.239Z,1.80
2023-04-14T08:20:57.547Z,2.60
2023-04-14T08:23:24.170Z,1.85
2023-04-14T08:25:50.453Z,1.75
2023-04-14T08:28:17.173Z,1.70
2023-04-14T08:30:43.551Z,2.00
2023-04-14T08:33:09.867Z,1.80
2023-04-14T08:35:41.992Z,2.13
2023-04-14T08:38:09.298Z,1.80
2023-04-14T08:40:39.791Z,2.05
2023-04-14T08:43:06.592Z,1.85
2023-04-14T08:45:33.276Z,1.70
2023-04-14T08:48:00.803Z,1.70
2023-04-14T08:50:30.322Z,1.73
2023-04-14T08:52:58.677Z,1.90
2023-04-14T08:55:25.292Z,1.83
2023-04-14T08:57:52.059Z,1.70
2023-04-14T09:00:19.402Z,1.60
2023-04-14T09:02:47.017Z,1.45
2023-04-14T09:05:13.821Z,1.88
2023-04-14T09:07:40.614Z,1.60
2023-04-14T09:10:07.468Z,1.60
2023-04-14T09:12:33.787Z,1.90
2023-04-14T09:15:00.137Z,1.25
2023-04-14T09:17:27.542Z,1.92
2023-04-14T09:20:35.498Z,1.45
2023-04-14T09:22:40.616Z,1.70
2023-04-14T09:25:07.647Z,1.75
2023-04-14T09:27:34.041Z,1.17
2023-04-14T09:30:00.721Z,1.65
2023-04-14T09:32:27.183Z,1.73
2023-04-14T09:34:55.639Z,1.60
2023-04-14T09:37:24.043Z,1.25
2023-04-14T09:39:51.269Z,1.60
2023-04-14T09:42:18.480Z,1.10
2023-04-14T09:44:52.596Z,1.40
2023-04-14T09:47:20.236Z,1.55
2023-04-14T09:49:57.521Z,1.50
2023-04-14T09:52:35.216Z,1.20
2023-04-14T09:55:01.740Z,1.10
2023-04-14T09:57:28.791Z,1.63
2023-04-14T09:59:55.350Z,1.60
2023-04-14T10:02:21.751Z,1.10
2023-04-14T10:05:03.322Z,1.70
2023-04-14T10:07:29.651Z,1.25
2023-04-14T10:09:56.158Z,1.50
2023-04-14T10:12:22.632Z,1.42
2023-04-14T10:14:48.933Z,1.15
2023-04-14T10:17:15.388Z,1.65
2023-04-14T10:19:42.073Z,1.52
2023-04-14T10:22:08.479Z,1.08
2023-04-14T10:24:34.836Z,1.23
2023-04-14T10:27:02.908Z,1.42
2023-04-14T10:29:29.617Z,1.10
2023-04-14T10:32:05.288Z,1.15
2023-04-14T10:34:33.008Z,1.10
2023-04-14T10:37:13.000Z,1.35
2023-04-14T10:39:39.642Z,1.30
2023-04-14T10:42:05.983Z,1.13
2023-04-14T10:44:33.004Z,1.20
2023-04-14T10:47:02.007Z,0.93
2023-04-14T10:49:31.380Z,1.20
2023-04-14T10:51:58.810Z,1.70
2023-04-14T10:54:25.121Z,1.50
2023-04-14T10:57:11.175Z,1.17
2023-04-14T10:59:39.996Z,1.25
2023-04-14T11:02:21.639Z,1.20
2023-04-14T11:05:14.131Z,1.20
2023-04-14T11:07:44.577Z,1.00
2023-04-14T11:10:16.995Z,1.10
2023-04-14T11:12:43.767Z,1.10
2023-04-14T11:15:10.560Z,1.15
2023-04-14T11:17:40.417Z,1.00
2023-04-14T11:20:17.154Z,1.20
2023-04-14T11:22:45.897Z,1.02
2023-04-14T11:25:13.442Z,1.20
2023-04-14T11:27:40.084Z,1.10
2023-04-14T11:30:13.084Z,1.60
2023-04-14T11:32:47.800Z,1.02
2023-04-14T11:35:14.858Z,1.10
2023-04-14T11:37:41.330Z,0.90
2023-04-14T11:40:09.406Z,1.13
2023-04-14T11:42:35.698Z,1.08
2023-04-14T11:45:05.596Z,1.00
2023-04-14T11:47:32.062Z,0.90
2023-04-14T11:50:01.352Z,1.08
2023-04-14T11:52:27.753Z,1.10
2023-04-14T11:54:54.079Z,1.17
2023-04-14T11:57:20.505Z,1.48
2023-04-14T11:59:47.430Z,1.30
2023-04-14T12:02:20.840Z,0.90
2023-04-14T12:04:50.191Z,0.98
2023-04-14T12:07:18.036Z,1.00
2023-04-14T12:09:44.950Z,1.20
2023-04-14T12:12:12.227Z,1.40
2023-04-14T12:14:39.741Z,0.82
2023-04-14T12:17:06.958Z,1.23
2023-04-14T12:19:34.250Z,0.80
2023-04-14T12:22:00.555Z,1.33
2023-04-14T12:24:39.074Z,0.85
2023-04-14T12:27:06.401Z,1.08
2023-04-14T12:29:38.968Z,0.80
2023-04-14T12:32:14.968Z,0.90
2023-04-14T12:34:41.572Z,1.00
2023-04-14T12:37:08.661Z,0.90
2023-04-14T12:39:57.822Z,0.82
2023-04-14T12:42:28.027Z,0.80
2023-04-14T12:44:54.423Z,0.82
2023-04-14T12:47:31.080Z,0.80
2023-04-14T12:49:58.489Z,1.20
2023-04-14T12:52:40.688Z,0.90
2023-04-14T12:55:07.785Z,1.10
2023-04-14T12:57:34.549Z,0.98
2023-04-14T13:00:01.930Z,0.90
2023-04-14T13:04:56.630Z,0.88
2023-04-14T13:07:23.120Z,0.95
2023-04-14T13:09:49.972Z,1.10
2023-04-14T13:12:16.367Z,1.00
2023-04-14T13:14:42.649Z,1.02
2023-04-14T13:17:08.989Z,0.95
2023-04-14T13:19:35.624Z,0.95
2023-04-14T13:22:01.942Z,0.80
2023-04-14T13:24:28.297Z,0.65
2023-04-14T13:26:54.545Z,1.20
2023-04-14T13:29:20.820Z,1.00
2023-04-14T13:31:47.326Z,0.90
2023-04-14T13:34:13.744Z,1.40
2023-04-14T13:36:40.399Z,1.00
2023-04-14T13:39:06.816Z,0.98
2023-04-14T13:41:33.092Z,0.80
2023-04-14T13:43:59.388Z,0.90
2023-04-14T13:46:25.693Z,1.10
2023-04-14T13:48:52.377Z,0.90
2023-04-14T13:51:18.713Z,0.95
2023-04-14T13:53:45.740Z,0.75
2023-04-14T13:56:11.988Z,1.15
2023-04-14T13:58:38.558Z,0.85
2023-04-14T14:01:12.029Z,0.98
2023-04-14T14:03:39.815Z,0.70
2023-04-14T14:06:07.359Z,0.77
2023-04-14T14:08:37.620Z,0.82
2023-04-14T14:11:07.189Z,0.70
2023-04-14T14:13:38.486Z,0.90
2023-04-14T14:16:06.695Z,0.90
2023-04-14T14:18:33.513Z,0.60
2023-04-14T14:20:59.911Z,1.05
2023-04-14T14:23:26.323Z,0.93
2023-04-14T14:25:53.905Z,1.10
2023-04-14T14:28:22.059Z,1.05
2023-04-14T14:30:48.433Z,1.08
2023-04-14T14:33:14.740Z,1.00
2023-04-14T14:35:41.113Z,1.27
2023-04-14T14:38:07.402Z,1.30
2023-04-14T14:40:33.700Z,1.10
2023-04-14T14:43:00.245Z,1.13
2023-04-14T14:45:30.974Z,1.17
2023-04-14T14:47:57.947Z,1.42
2023-04-14T14:50:24.275Z,1.17
2023-04-14T14:52:50.642Z,1.23
2023-04-14T14:55:17.036Z,1.15
2023-04-14T14:57:43.332Z,1.27
2023-04-14T15:00:10.957Z,1.42
2023-04-14T15:02:38.853Z,0.80
2023-04-14T15:05:06.042Z,0.90
2023-04-14T15:07:32.367Z,0.90
2023-04-14T15:09:58.685Z,0.68
2023-04-14T15:12:24.992Z,1.13
2023-04-14T15:14:51.247Z,1.10
2023-04-14T15:17:18.167Z,0.90
2023-04-14T15:19:44.811Z,0.90
2023-04-14T15:22:11.385Z,1.30
2023-04-14T15:24:37.718Z,0.98
2023-04-14T15:27:04.029Z,1.38
2023-04-14T15:29:31.286Z,1.00
2023-04-14T15:31:57.659Z,1.00
2023-04-14T15:34:24.037Z,1.27
2023-04-14T15:36:50.348Z,1.20
2023-04-14T15:39:16.640Z,0.90
2023-04-14T15:41:43.330Z,1.20
2023-04-14T15:44:09.810Z,1.45
2023-04-14T15:46:36.109Z,1.40
2023-04-14T15:49:02.357Z,0.95
2023-04-14T15:51:28.723Z,1.42
2023-04-14T15:53:55.309Z,1.58
2023-04-14T15:56:23.267Z,1.25
2023-04-14T15:58:49.942Z,1.30
2023-04-14T16:01:16.405Z,1.02
2023-04-14T16:03:42.831Z,1.20
2023-04-14T16:06:09.476Z,1.73
2023-04-14T16:08:36.361Z,1.55
2023-04-14T16:11:02.677Z,1.23
2023-04-14T16:13:29.121Z,1.10
2023-04-14T16:15:55.526Z,1.10
2023-04-14T16:18:21.897Z,1.20
2023-04-14T16:20:50.250Z,1.20
2023-04-14T16:23:16.776Z,1.10
2023-04-14T16:25:47.333Z,1.00
2023-04-14T16:28:13.592Z,1.10
2023-04-14T16:30:39.867Z,1.67
2023-04-14T16:33:06.848Z,1.08
2023-04-14T16:35:34.149Z,1.30
2023-04-14T16:38:00.582Z,1.08
2023-04-14T16:40:27.446Z,1.25
2023-04-14T16:42:53.693Z,1.05
2023-04-14T16:45:20.790Z,1.10
2023-04-14T16:47:47.308Z,1.00
2023-04-14T16:50:13.674Z,0.95
2023-04-14T16:52:40.706Z,1.10
2023-04-14T16:55:07.238Z,0.80
2023-04-14T16:57:33.616Z,1.00
2023-04-14T17:00:00.021Z,1.15
2023-04-14T17:02:26.637Z,1.48
2023-04-14T17:04:53.106Z,1.23
2023-04-14T17:07:19.649Z,1.10
2023-04-14T17:09:47.027Z,1.13
2023-04-14T17:12:13.414Z,1.02
2023-04-14T17:14:39.716Z,1.10
2023-04-14T17:17:06.269Z,1.30
2023-04-14T17:19:32.972Z,1.17
2023-04-14T17:21:59.567Z,1.23
2023-04-14T17:24:26.347Z,1.38
2023-04-14T17:26:52.997Z,1.20
2023-04-14T17:29:19.291Z,1.20
2023-04-14T17:31:46.118Z,1.30
2023-04-14T17:34:12.521Z,1.42
2023-04-14T17:36:39.403Z,1.63
2023-04-14T17:39:06.761Z,1.40
2023-04-14T17:41:33.389Z,1.60
2023-04-14T17:44:00.027Z,1.63
2023-04-14T17:46:33.453Z,1.63
2023-04-14T17:49:01.482Z,2.22
2023-04-14T17:51:29.153Z,2.35
2023-04-14T17:53:55.721Z,1.67
2023-04-14T17:56:22.431Z,1.83
2023-04-14T17:58:48.801Z,1.80
2023-04-14T18:01:15.270Z,1.90
2023-04-14T18:03:42.050Z,1.45
2023-04-14T18:06:09.297Z,1.77
2023-04-14T18:08:35.613Z,2.30
2023-04-14T18:11:02.020Z,3.55
2023-04-14T18:13:28.559Z,2.30
2023-04-14T18:15:55.010Z,2.65
2023-04-14T18:18:21.508Z,2.10
2023-04-14T18:20:52.129Z,2.05
2023-04-14T18:23:19.020Z,1.83
2023-04-14T18:28:14.738Z,2.80
2023-04-14T18:30:42.366Z,2.40
2023-04-14T18:33:08.883Z,2.10
2023-04-14T18:35:35.261Z,1.90
2023-04-14T18:38:01.757Z,1.88
2023-04-14T18:40:28.079Z,2.35
2023-04-14T18:42:54.695Z,1.88
2023-04-14T18:45:21.097Z,2.10
2023-04-14T18:47:47.503Z,2.80
2023-04-14T18:50:13.844Z,2.35
2023-04-14T18:52:40.249Z,2.55
2023-04-14T18:55:07.075Z,2.00
2023-04-14T18:57:33.404Z,2.53
2023-04-14T18:59:59.929Z,1.95
2023-04-14T19:02:26.439Z,2.38
2023-04-14T19:04:53.196Z,2.25
2023-04-14T19:07:19.588Z,1.75
2023-04-14T19:09:46.001Z,1.95
2023-04-14T19:12:21.643Z,1.77
2023-04-14T19:14:51.618Z,2.15
2023-04-14T19:17:17.940Z,1.90
2023-04-14T19:19:44.197Z,1.55
2023-04-14T19:22:10.461Z,1.80
2023-04-14T19:24:37.157Z,1.20
2023-04-14T19:27:04.643Z,1.40
2023-04-14T19:29:30.944Z,1.40
2023-04-14T19:31:57.345Z,1.65
2023-04-14T19:34:23.794Z,1.90
2023-04-14T19:36:50.484Z,2.08
2023-04-14T19:39:16.780Z,1.20
2023-04-14T19:41:43.172Z,1.70
2023-04-14T19:44:10.158Z,1.40
2023-04-14T19:46:37.111Z,2.15
2023-04-14T19:49:03.697Z,1.55
2023-04-14T19:51:30.350Z,1.80
2023-04-14T19:53:57.078Z,1.60
2023-04-14T19:56:23.481Z,1.48
2023-04-14T19:58:51.674Z,1.85
2023-04-14T20:01:18.261Z,1.63
2023-04-14T20:04:06.917Z,1.40
2023-04-14T20:06:30.995Z,1.70
2023-04-14T20:08:57.243Z,1.83
2023-04-14T20:11:27.246Z,1.60
2023-04-14T20:13:53.904Z,1.95
2023-04-14T20:16:20.465Z,1.23
2023-04-14T20:18:47.201Z,1.67
2023-04-14T20:21:17.025Z,1.80
2023-04-14T20:23:43.477Z,1.70
2023-04-14T20:26:13.364Z,1.67
2023-04-14T20:28:39.813Z,1.60
2023-04-14T20:31:06.752Z,1.40
2023-04-14T20:33:33.104Z,1.48
2023-04-14T20:36:01.756Z,1.95
2023-04-14T20:38:29.232Z,1.90
2023-04-14T20:40:55.543Z,1.33
2023-04-14T20:43:22.210Z,1.17
2023-04-14T20:45:49.706Z,1.52
2023-04-14T20:48:16.350Z,1.50
2023-04-14T20:50:44.419Z,1.20
2023-04-14T20:53:10.869Z,1.48
2023-04-14T20:55:37.201Z,1.40
2023-04-14T20:58:03.960Z,1.60
2023-04-14T21:00:31.903Z,1.63
2023-04-14T21:02:59.824Z,1.60
2023-04-14T21:05:26.765Z,1.80
2023-04-14T21:07:53.083Z,1.30
2023-04-14T21:10:19.405Z,1.58
2023-04-14T21:15:26.397Z,1.45
2023-04-14T21:15:53.509Z,1.40
2023-04-14T21:18:19.077Z,1.50
2023-04-14T21:20:45.668Z,1.83
2023-04-14T21:23:11.992Z,1.50
2023-04-14T21:25:38.344Z,1.60
2023-04-14T21:28:04.861Z,1.70
2023-04-14T21:30:31.868Z,1.30
2023-04-14T21:32:58.235Z,1.45
2023-04-14T21:35:25.134Z,1.48
2023-04-14T21:37:51.539Z,1.30
2023-04-14T21:40:17.992Z,1.42
2023-04-14T21:42:44.284Z,1.50
2023-04-14T21:45:10.796Z,1.13
2023-04-14T21:47:37.236Z,1.40
2023-04-14T21:50:03.658Z,1.55
2023-04-14T21:52:29.932Z,1.92
2023-04-14T21:54:56.692Z,1.15
2023-04-14T21:57:43.616Z,1.40
2023-04-14T22:00:13.263Z,1.20
2023-04-14T22:02:39.990Z,1.52
2023-04-14T22:05:06.930Z,1.33
2023-04-14T22:07:33.237Z,1.67
2023-04-14T22:09:59.538Z,1.60
2023-04-14T22:12:26.534Z,2.55
2023-04-14T22:14:53.741Z,1.52
2023-04-14T22:17:20.332Z,1.58
2023-04-14T22:19:46.983Z,1.52
2023-04-14T22:22:13.266Z,1.48
2023-04-14T22:24:39.572Z,1.55
2023-04-14T22:27:06.492Z,1.40
2023-04-14T22:29:32.736Z,1.40
2023-04-14T22:31:59.006Z,1.35
2023-04-14T22:34:25.310Z,1.73
2023-04-14T22:36:51.846Z,1.70
2023-04-14T22:39:18.349Z,1.38
2023-04-14T22:41:46.666Z,1.70
2023-04-14T22:44:13.039Z,1.60
2023-04-14T22:46:39.471Z,1.48
2023-04-14T22:49:05.786Z,1.40
2023-04-14T22:51:32.209Z,1.80
2023-04-14T22:53:58.578Z,1.63
2023-04-14T22:56:24.972Z,1.42
2023-04-14T22:58:51.474Z,1.40
2023-04-14T23:01:22.393Z,1.80
2023-04-14T23:03:51.030Z,1.55
2023-04-14T23:06:19.778Z,1.48
2023-04-14T23:08:52.298Z,1.42
2023-04-14T23:11:21.081Z,1.42
2023-04-14T23:13:48.149Z,1.40
2023-04-14T23:16:16.686Z,1.60
2023-04-14T23:18:43.414Z,1.88
2023-04-14T23:21:09.986Z,1.30
2023-04-14T23:23:36.308Z,1.55
2023-04-14T23:26:02.559Z,1.42
2023-04-14T23:28:28.819Z,1.27
2023-04-14T23:30:55.145Z,1.30
2023-04-14T23:33:21.782Z,1.48
2023-04-14T23:35:48.197Z,1.80
2023-04-14T23:38:15.232Z,1.50
2023-04-14T23:40:41.547Z,2.13
2023-04-14T23:43:08.161Z,1.80
2023-04-14T23:45:37.614Z,2.17
2023-04-14T23:48:05.833Z,1.70
2023-04-14T23:50:58.849Z,1.70
2023-04-14T23:53:19.144Z,1.33
2023-04-14T23:55:45.983Z,1.85
2023-04-14T23:58:12.669Z,1.58
